createdAt,value
2019-03-10T00:01:50.725Z,8.87
2019-03-10T00:04:21.595Z,9.17
2019-03-10T00:06:52.555Z,6.47
2019-03-10T00:09:23.393Z,6.50
2019-03-10T00:11:54.173Z,9.07
2019-03-10T00:14:24.968Z,14.23
2019-03-10T00:16:55.810Z,10.53
2019-03-10T00:19:26.662Z,11.07
2019-03-10T00:21:57.458Z,8.87
2019-03-10T00:24:28.389Z,7.70
2019-03-10T00:26:59.268Z,9.67
2019-03-10T00:29:30.016Z,11.80
2019-03-10T00:32:00.861Z,7.50
2019-03-10T00:34:31.767Z,9.57
2019-03-10T00:37:02.618Z,7.83
2019-03-10T00:40:09.372Z,10.43
2019-03-10T00:43:12.942Z,7.43
2019-03-10T00:46:23.479Z,12.20
2019-03-10T00:49:38.136Z,8.93
2019-03-10T00:52:22.197Z,7.87
2019-03-10T00:54:53.148Z,8.20
2019-03-10T00:57:24.054Z,6.97
2019-03-10T00:59:55.485Z,9.23
2019-03-10T01:02:26.325Z,8.90
2019-03-10T01:04:57.260Z,15.77
2019-03-10T01:07:28.081Z,12.30
2019-03-10T01:09:59.113Z,7.27
2019-03-10T01:12:30.101Z,10.53
2019-03-10T01:15:01.020Z,11.80
2019-03-10T01:17:33.266Z,8.80
2019-03-10T01:20:04.611Z,8.37
2019-03-10T01:22:36.469Z,8.83
2019-03-10T01:25:07.598Z,8.03
2019-03-10T01:27:38.522Z,13.13
2019-03-10T01:30:13.378Z,7.30
2019-03-10T01:33:04.188Z,9.80
2019-03-10T01:35:42.579Z,10.27
2019-03-10T01:38:12.981Z,9.23
2019-03-10T01:40:43.846Z,10.93
2019-03-10T01:43:14.638Z,13.97
2019-03-10T01:45:45.539Z,10.07
2019-03-10T01:48:16.514Z,9.00
2019-03-10T01:50:48.325Z,14.00
2019-03-10T01:53:25.440Z,11.90
2019-03-10T01:55:51.609Z,13.20
2019-03-10T01:58:23.896Z,12.63
2019-03-10T02:00:55.705Z,9.90
2019-03-10T02:03:26.471Z,10.80
2019-03-10T02:05:57.356Z,13.17
2019-03-10T02:08:28.272Z,10.60
2019-03-10T02:10:59.072Z,12.30
2019-03-10T02:13:29.914Z,12.00
2019-03-10T02:16:00.689Z,11.33
2019-03-10T02:18:31.515Z,11.43
2019-03-10T02:21:02.678Z,10.40
2019-03-10T02:23:33.448Z,8.33
2019-03-10T02:26:04.349Z,10.67
2019-03-10T02:28:35.210Z,15.00
2019-03-10T02:31:06.005Z,16.47
2019-03-10T02:33:36.826Z,11.77
2019-03-10T02:36:07.672Z,13.80
2019-03-10T02:38:38.584Z,14.10
2019-03-10T02:41:09.391Z,14.03
2019-03-10T02:43:40.240Z,9.83
2019-03-10T02:46:11.198Z,13.87
2019-03-10T02:48:42.073Z,11.70
2019-03-10T02:51:12.968Z,17.03
2019-03-10T02:53:43.767Z,11.33
2019-03-10T02:56:14.584Z,13.93
2019-03-10T02:58:45.382Z,16.17
2019-03-10T03:01:17.143Z,17.73
2019-03-10T03:03:48.004Z,19.33
2019-03-10T03:06:18.811Z,15.57
2019-03-10T03:08:49.590Z,12.97
2019-03-10T03:11:20.435Z,14.10
2019-03-10T03:13:51.221Z,17.37
2019-03-10T03:16:22.082Z,14.27
2019-03-10T03:18:54.011Z,20.73
2019-03-10T03:21:25.048Z,13.23
2019-03-10T03:23:56.919Z,17.57
2019-03-10T03:26:28.038Z,14.50
2019-03-10T03:28:58.863Z,14.90
2019-03-10T03:31:29.816Z,16.93
2019-03-10T03:34:00.710Z,12.80
2019-03-10T03:36:34.271Z,17.97
2019-03-10T03:39:23.035Z,16.53
2019-03-10T03:41:53.905Z,16.23
2019-03-10T03:44:24.866Z,13.17
2019-03-10T03:46:55.750Z,19.67
2019-03-10T03:49:26.558Z,12.00
2019-03-10T03:51:57.458Z,15.83
2019-03-10T03:54:30.154Z,9.50
2019-03-10T03:57:01.013Z,16.27
2019-03-10T03:59:31.881Z,20.40
2019-03-10T04:02:24.011Z,13.00
2019-03-10T04:04:54.896Z,14.70
2019-03-10T04:07:25.707Z,12.60
2019-03-10T04:09:58.312Z,14.13
2019-03-10T04:12:29.209Z,18.03
2019-03-10T04:15:00.234Z,21.13
2019-03-10T04:17:31.277Z,17.80
2019-03-10T04:20:02.181Z,11.87
2019-03-10T04:22:33.054Z,12.07
2019-03-10T04:25:04.263Z,8.17
2019-03-10T04:27:35.063Z,11.90
2019-03-10T04:30:06.260Z,11.20
2019-03-10T04:32:37.146Z,12.80
2019-03-10T04:35:07.930Z,8.27
2019-03-10T04:37:40.592Z,10.80
2019-03-10T04:40:11.582Z,16.47
2019-03-10T04:42:42.370Z,14.20
2019-03-10T04:45:13.170Z,11.07
2019-03-10T04:47:44.059Z,11.03
2019-03-10T04:50:16.389Z,11.70
2019-03-10T04:52:47.520Z,14.53
2019-03-10T04:55:26.499Z,14.00
2019-03-10T04:58:07.648Z,13.33
2019-03-10T05:00:40.025Z,15.73
2019-03-10T05:03:11.714Z,14.33
2019-03-10T05:05:42.701Z,15.87
2019-03-10T05:08:13.528Z,13.37
2019-03-10T05:10:44.367Z,12.53
2019-03-10T05:13:15.265Z,12.17
2019-03-10T05:15:46.047Z,10.97
2019-03-10T05:18:17.020Z,10.80
2019-03-10T05:20:47.860Z,9.07
2019-03-10T05:23:39.132Z,16.83
2019-03-10T05:26:09.956Z,11.50
2019-03-10T05:28:52.131Z,14.43
2019-03-10T05:31:22.986Z,9.43
2019-03-10T05:33:53.742Z,10.13
2019-03-10T05:36:24.543Z,13.43
2019-03-10T05:38:55.390Z,13.97
2019-03-10T05:41:26.204Z,10.77
2019-03-10T05:43:58.745Z,7.57
2019-03-10T05:46:31.264Z,9.67
2019-03-10T05:49:02.076Z,10.50
2019-03-10T05:51:32.890Z,13.90
2019-03-10T05:54:03.713Z,9.60
2019-03-10T05:56:34.591Z,12.80
2019-03-10T05:59:05.425Z,8.53
2019-03-10T06:01:36.236Z,7.97
2019-03-10T06:04:07.888Z,8.80
2019-03-10T06:06:38.696Z,8.97
2019-03-10T06:09:09.468Z,8.80
2019-03-10T06:11:40.253Z,9.63
2019-03-10T06:14:11.085Z,11.93
2019-03-10T06:16:41.861Z,9.67
2019-03-10T06:19:13.753Z,12.20
2019-03-10T06:21:44.567Z,11.03
2019-03-10T06:24:17.267Z,13.23
2019-03-10T06:26:48.055Z,17.87
2019-03-10T06:29:18.891Z,13.23
2019-03-10T06:31:49.836Z,18.47
2019-03-10T06:34:20.869Z,18.60
2019-03-10T06:36:51.650Z,11.30
2019-03-10T06:39:23.671Z,14.60
2019-03-10T06:41:54.551Z,15.00
2019-03-10T06:44:25.353Z,16.60
2019-03-10T06:46:56.191Z,15.53
2019-03-10T06:49:27.011Z,14.47
2019-03-10T06:51:57.890Z,17.13
2019-03-10T06:54:28.712Z,16.97
2019-03-10T06:56:59.566Z,20.60
2019-03-10T06:59:30.514Z,14.83
2019-03-10T07:02:01.400Z,16.10
2019-03-10T07:04:32.313Z,17.37
2019-03-10T07:07:03.157Z,15.73
2019-03-10T07:09:33.950Z,16.03
2019-03-10T07:12:06.521Z,12.83
2019-03-10T07:14:37.328Z,18.77
2019-03-10T07:17:08.238Z,13.77
2019-03-10T07:19:40.058Z,13.77
2019-03-10T07:22:10.847Z,12.50
2019-03-10T07:24:41.652Z,13.27
2019-03-10T07:27:12.443Z,8.20
2019-03-10T07:30:11.166Z,11.33
2019-03-10T07:33:10.131Z,11.53
2019-03-10T07:35:49.400Z,8.43
2019-03-10T07:38:44.350Z,7.73
2019-03-10T07:41:26.250Z,9.67
2019-03-10T07:44:03.150Z,4.13
2019-03-10T07:47:11.056Z,4.80
2019-03-10T07:50:00.818Z,4.20
2019-03-10T07:52:41.362Z,2.13
2019-03-10T07:55:31.221Z,4.07
2019-03-10T07:58:10.010Z,2.90
2019-03-10T08:00:56.681Z,5.67
2019-03-10T08:03:37.332Z,6.80
2019-03-10T08:06:24.423Z,4.87
2019-03-10T08:09:26.771Z,4.40
2019-03-10T08:12:14.942Z,1.97
2019-03-10T08:15:13.083Z,4.83
2019-03-10T08:18:00.790Z,3.10
2019-03-10T08:20:43.974Z,3.07
2019-03-10T08:23:33.763Z,5.40
2019-03-10T08:26:12.611Z,6.47
2019-03-10T08:28:59.663Z,5.10
2019-03-10T08:31:55.195Z,4.70
2019-03-10T08:34:42.162Z,7.77
2019-03-10T08:37:23.720Z,5.27
2019-03-10T08:40:19.199Z,5.90
2019-03-10T08:43:15.250Z,4.83
2019-03-10T08:46:03.779Z,3.10
2019-03-10T08:49:06.018Z,2.60
2019-03-10T08:51:50.450Z,5.77
2019-03-10T08:54:52.443Z,1.83
2019-03-10T08:57:30.710Z,4.80
2019-03-10T09:00:38.785Z,3.67
2019-03-10T09:03:34.941Z,4.65
2019-03-10T09:06:30.862Z,4.33
2019-03-10T09:09:20.802Z,6.17
2019-03-10T09:12:16.823Z,8.40
2019-03-10T09:15:15.975Z,6.00
2019-03-10T09:18:06.278Z,5.13
2019-03-10T09:21:12.528Z,7.10
2019-03-10T09:24:05.507Z,8.67
2019-03-10T09:27:04.517Z,4.27
2019-03-10T09:30:09.663Z,4.87
2019-03-10T09:32:56.706Z,4.43
2019-03-10T09:35:37.583Z,3.53
2019-03-10T09:38:21.103Z,5.27
2019-03-10T09:41:04.851Z,6.43
2019-03-10T09:43:54.738Z,7.53
2019-03-10T09:47:03.142Z,6.40
2019-03-10T09:49:47.276Z,5.80
2019-03-10T09:52:30.665Z,7.37
2019-03-10T09:55:26.307Z,6.73
2019-03-10T09:58:31.386Z,8.57
2019-03-10T10:01:23.892Z,8.10
2019-03-10T10:04:04.708Z,8.70
2019-03-10T10:06:53.603Z,10.50
2019-03-10T10:09:52.613Z,8.23
2019-03-10T10:12:48.682Z,9.33
2019-03-10T10:15:38.131Z,8.80
2019-03-10T10:18:31.894Z,6.33
2019-03-10T10:21:31.274Z,6.10
2019-03-10T10:24:21.091Z,7.83
2019-03-10T10:27:03.855Z,6.83
2019-03-10T10:29:57.800Z,7.17
2019-03-10T10:32:38.306Z,6.63
2019-03-10T10:35:31.080Z,4.30
2019-03-10T10:38:18.647Z,4.37
2019-03-10T10:40:56.839Z,6.67
2019-03-10T10:43:46.614Z,6.17
2019-03-10T10:46:35.184Z,5.00
2019-03-10T10:49:11.709Z,5.17
2019-03-10T10:51:52.784Z,6.00
2019-03-10T10:54:44.420Z,5.13
2019-03-10T10:57:34.324Z,5.60
2019-03-10T11:00:24.629Z,5.13
2019-03-10T11:03:20.906Z,4.20
2019-03-10T11:06:06.544Z,5.97
2019-03-10T11:08:52.634Z,3.60
2019-03-10T11:11:36.866Z,6.63
2019-03-10T11:14:26.672Z,7.50
2019-03-10T11:17:19.204Z,6.80
2019-03-10T11:20:00.790Z,8.20
2019-03-10T11:22:54.535Z,8.27
2019-03-10T11:25:37.133Z,5.57
2019-03-10T11:28:27.060Z,9.47
2019-03-10T11:31:05.214Z,9.10
2019-03-10T11:34:07.394Z,12.50
2019-03-10T11:36:54.026Z,14.43
2019-03-10T11:39:32.396Z,13.13
2019-03-10T11:42:20.892Z,10.07
2019-03-10T11:45:09.829Z,11.37
2019-03-10T11:47:48.072Z,10.80
2019-03-10T11:50:50.066Z,10.13
2019-03-10T11:53:37.805Z,7.00
2019-03-10T11:56:20.767Z,7.20
2019-03-10T11:58:59.866Z,8.07
2019-03-10T12:01:35.758Z,8.00
2019-03-10T12:04:24.726Z,8.47
2019-03-10T12:07:23.855Z,11.53
2019-03-10T12:09:54.767Z,9.27
2019-03-10T12:12:25.734Z,9.60
2019-03-10T12:14:56.655Z,10.00
2019-03-10T12:17:27.643Z,10.87
2019-03-10T12:19:58.607Z,13.33
2019-03-10T12:22:29.548Z,6.37
2019-03-10T12:25:00.557Z,14.07
2019-03-10T12:27:31.362Z,5.57
2019-03-10T12:30:02.383Z,6.67
2019-03-10T12:32:33.373Z,6.13
2019-03-10T12:35:04.633Z,6.27
2019-03-10T12:37:35.527Z,2.90
2019-03-10T12:40:07.185Z,6.37
2019-03-10T12:42:38.009Z,11.40
2019-03-10T12:45:08.875Z,11.90
2019-03-10T12:47:39.969Z,8.13
2019-03-10T12:50:10.861Z,9.80
2019-03-10T12:52:41.922Z,7.53
2019-03-10T12:55:13.848Z,9.93
2019-03-10T12:57:44.812Z,7.87
2019-03-10T13:00:16.460Z,11.33
2019-03-10T13:02:47.592Z,21.70
2019-03-10T13:05:18.675Z,10.83
2019-03-10T13:07:49.723Z,14.13
2019-03-10T13:10:21.780Z,14.37
2019-03-10T13:12:52.705Z,14.53
2019-03-10T13:15:23.634Z,13.17
2019-03-10T13:17:54.602Z,14.57
2019-03-10T13:20:28.553Z,14.90
2019-03-10T13:22:58.174Z,8.33
2019-03-10T13:25:30.369Z,8.20
2019-03-10T13:28:01.479Z,10.20
2019-03-10T13:30:32.314Z,13.33
2019-03-10T13:33:03.321Z,13.70
2019-03-10T13:35:34.223Z,11.10
2019-03-10T13:38:05.099Z,8.67
2019-03-10T13:40:36.194Z,4.30
2019-03-10T13:43:07.251Z,7.00
2019-03-10T13:45:38.196Z,3.77
2019-03-10T13:48:09.186Z,6.90
2019-03-10T13:50:40.238Z,7.07
2019-03-10T13:53:11.490Z,6.00
2019-03-10T13:55:42.568Z,6.40
2019-03-10T13:58:13.488Z,6.87
2019-03-10T14:00:44.533Z,4.33
2019-03-10T14:03:15.560Z,8.27
2019-03-10T14:05:46.479Z,8.33
2019-03-10T14:08:17.395Z,10.73
2019-03-10T14:10:49.225Z,4.57
2019-03-10T14:13:21.115Z,3.30
2019-03-10T14:15:52.098Z,2.90
2019-03-10T14:18:24.083Z,7.43
2019-03-10T14:20:55.152Z,1.60
2019-03-10T14:23:26.075Z,5.07
2019-03-10T14:25:57.596Z,4.57
2019-03-10T14:28:29.508Z,3.97
2019-03-10T14:31:00.337Z,2.30
2019-03-10T14:33:31.258Z,5.00
2019-03-10T14:36:02.319Z,4.13
2019-03-10T14:38:33.278Z,5.90
2019-03-10T14:41:04.273Z,4.13
2019-03-10T14:43:35.257Z,5.47
2019-03-10T14:46:06.295Z,3.53
2019-03-10T14:48:37.303Z,6.00
2019-03-10T14:51:13.622Z,3.53
2019-03-10T14:53:44.612Z,1.57
2019-03-10T14:56:15.578Z,4.83
2019-03-10T14:58:48.251Z,4.57
2019-03-10T15:01:19.394Z,5.13
2019-03-10T15:03:50.333Z,4.13
2019-03-10T15:06:21.288Z,4.57
2019-03-10T15:08:52.838Z,7.97
2019-03-10T15:11:23.880Z,3.73
2019-03-10T15:13:54.834Z,3.40
2019-03-10T15:16:25.696Z,5.63
2019-03-10T15:18:56.664Z,4.43
2019-03-10T15:21:28.476Z,2.87
2019-03-10T15:23:59.482Z,3.47
2019-03-10T15:26:30.419Z,4.23
2019-03-10T15:29:01.487Z,1.80
2019-03-10T15:31:32.485Z,3.93
2019-03-10T15:34:03.461Z,5.47
2019-03-10T15:36:34.314Z,4.67
2019-03-10T15:39:06.230Z,1.23
2019-03-10T15:41:40.151Z,1.13
2019-03-10T15:44:13.783Z,1.47
2019-03-10T15:46:44.774Z,4.13
2019-03-10T15:49:15.628Z,0.53
2019-03-10T15:51:46.581Z,1.53
2019-03-10T15:54:17.394Z,2.97
2019-03-10T15:56:48.466Z,1.40
2019-03-10T15:59:19.455Z,1.90
2019-03-10T16:01:50.416Z,0.77
2019-03-10T16:04:22.712Z,0.70
2019-03-10T16:06:53.767Z,0.97
2019-03-10T16:09:26.506Z,0.50
2019-03-10T16:11:57.700Z,0.50
2019-03-10T16:14:28.769Z,0.30
2019-03-10T16:16:59.643Z,0.63
2019-03-10T16:19:30.501Z,0.50
2019-03-10T16:22:01.467Z,0.50
2019-03-10T16:24:32.542Z,0.50
2019-03-10T16:27:03.452Z,0.40
2019-03-10T16:29:34.498Z,0.30
2019-03-10T16:32:05.444Z,0.40
2019-03-10T16:34:36.612Z,0.30
2019-03-10T16:37:07.633Z,0.87
2019-03-10T16:39:38.685Z,0.40
2019-03-10T16:42:09.625Z,0.20
2019-03-10T16:44:42.495Z,0.33
2019-03-10T16:47:13.403Z,0.30
2019-03-10T16:49:44.437Z,0.53
2019-03-10T16:52:15.548Z,0.33
2019-03-10T16:54:48.063Z,0.93
2019-03-10T16:57:19.095Z,0.70
2019-03-10T16:59:50.181Z,0.23
2019-03-10T17:02:21.148Z,0.70
2019-03-10T17:04:52.288Z,0.40
2019-03-10T17:07:23.397Z,0.40
2019-03-10T17:09:57.427Z,0.83
2019-03-10T17:12:28.596Z,0.70
2019-03-10T17:14:59.514Z,0.43
2019-03-10T17:17:30.483Z,0.30
2019-03-10T17:20:01.555Z,0.40
2019-03-10T17:22:33.618Z,1.13
2019-03-10T17:25:05.031Z,0.43
2019-03-10T17:27:35.972Z,0.53
2019-03-10T17:30:09.892Z,0.40
2019-03-10T17:32:40.815Z,0.60
2019-03-10T17:35:12.005Z,0.63
2019-03-10T17:37:44.125Z,0.50
2019-03-10T17:40:16.586Z,0.80
2019-03-10T17:42:47.585Z,0.90
2019-03-10T17:45:19.028Z,1.13
2019-03-10T17:47:50.332Z,1.27
2019-03-10T17:50:21.544Z,1.00
2019-03-10T17:52:52.692Z,1.60
2019-03-10T17:55:23.668Z,2.30
2019-03-10T17:57:54.644Z,1.50
2019-03-10T18:00:27.800Z,1.40
2019-03-10T18:02:58.847Z,1.70
2019-03-10T18:05:29.805Z,1.47
2019-03-10T18:08:00.809Z,3.03
2019-03-10T18:10:32.879Z,2.13
2019-03-10T18:13:03.931Z,2.87
2019-03-10T18:15:34.875Z,4.70
2019-03-10T18:18:05.900Z,1.53
2019-03-10T18:20:38.719Z,2.47
2019-03-10T18:23:09.739Z,3.50
2019-03-10T18:25:40.734Z,3.17
2019-03-10T18:28:11.839Z,3.63
2019-03-10T18:30:42.795Z,3.77
2019-03-10T18:33:13.854Z,3.57
2019-03-10T18:35:46.002Z,4.50
2019-03-10T18:38:16.893Z,3.43
2019-03-10T18:40:47.828Z,4.20
2019-03-10T18:43:18.905Z,4.40
2019-03-10T18:45:49.849Z,4.63
2019-03-10T18:48:20.925Z,4.27
2019-03-10T18:50:52.000Z,5.73
2019-03-10T18:53:23.022Z,4.17
2019-03-10T18:55:54.882Z,4.90
2019-03-10T18:58:25.794Z,3.23
2019-03-10T19:00:56.822Z,4.00
2019-03-10T19:03:27.821Z,2.77
2019-03-10T19:05:58.872Z,2.40
2019-03-10T19:08:30.921Z,1.80
2019-03-10T19:11:03.672Z,2.73
2019-03-10T19:13:34.732Z,2.80
2019-03-10T19:16:06.075Z,2.20
2019-03-10T19:18:36.915Z,2.33
2019-03-10T19:21:07.870Z,1.47
2019-03-10T19:23:39.083Z,3.40
2019-03-10T19:26:11.383Z,2.60
2019-03-10T19:28:43.440Z,1.77
2019-03-10T19:31:14.466Z,2.03
2019-03-10T19:33:45.416Z,2.57
2019-03-10T19:36:16.497Z,2.53
2019-03-10T19:38:47.577Z,1.67
2019-03-10T19:41:18.646Z,1.70
2019-03-10T19:43:49.790Z,1.93
2019-03-10T19:46:21.869Z,1.37
2019-03-10T19:48:53.008Z,1.90
2019-03-10T19:51:24.049Z,1.40
2019-03-10T19:53:56.222Z,1.20
2019-03-10T19:56:27.389Z,0.80
2019-03-10T19:58:58.535Z,1.10
2019-03-10T20:01:29.420Z,1.27
2019-03-10T20:04:01.624Z,1.23
2019-03-10T20:06:37.814Z,1.20
2019-03-10T20:09:10.323Z,0.77
2019-03-10T20:11:45.286Z,0.50
2019-03-10T20:14:16.579Z,0.60
2019-03-10T20:16:47.651Z,0.83
2019-03-10T20:19:18.647Z,1.10
2019-03-10T20:21:49.606Z,0.37
2019-03-10T20:24:22.531Z,1.77
2019-03-10T20:26:53.608Z,0.70
2019-03-10T20:29:24.656Z,0.60
2019-03-10T20:31:55.640Z,0.70
2019-03-10T20:34:28.510Z,0.67
2019-03-10T20:36:59.510Z,0.63
2019-03-10T20:39:30.635Z,0.37
2019-03-10T20:42:05.368Z,0.60
2019-03-10T20:44:34.182Z,0.77
2019-03-10T20:47:05.171Z,0.57
2019-03-10T20:49:36.314Z,2.30
2019-03-10T20:52:07.430Z,1.17
2019-03-10T20:54:38.359Z,0.73
2019-03-10T20:57:09.286Z,2.10
2019-03-10T20:59:40.123Z,1.53
2019-03-10T21:02:11.031Z,1.23
2019-03-10T21:04:42.039Z,0.97
2019-03-10T21:07:12.976Z,1.57
2019-03-10T21:09:44.076Z,1.37
2019-03-10T21:12:17.321Z,1.77
2019-03-10T21:14:49.966Z,1.57
2019-03-10T21:17:21.096Z,2.53
2019-03-10T21:19:52.075Z,3.53
2019-03-10T21:22:23.013Z,0.67
2019-03-10T21:24:53.972Z,3.57
2019-03-10T21:27:25.012Z,3.20
2019-03-10T21:29:55.963Z,0.70
2019-03-10T21:32:26.829Z,1.47
2019-03-10T21:34:57.745Z,3.80
2019-03-10T21:37:28.637Z,0.67
2019-03-10T21:39:59.623Z,1.57
2019-03-10T21:42:31.654Z,0.93
2019-03-10T21:45:02.634Z,2.20
2019-03-10T21:47:36.432Z,1.33
2019-03-10T21:50:08.541Z,1.90
2019-03-10T21:52:39.584Z,1.40
2019-03-10T21:55:11.238Z,3.93
2019-03-10T21:57:42.211Z,4.57
2019-03-10T22:00:15.540Z,4.50
2019-03-10T22:02:46.599Z,1.83
2019-03-10T22:05:17.468Z,2.37
2019-03-10T22:07:48.565Z,2.40
2019-03-10T22:10:27.170Z,4.13
2019-03-10T22:12:53.474Z,1.07
2019-03-10T22:15:24.635Z,0.80
2019-03-10T22:17:55.690Z,3.93
2019-03-10T22:20:26.783Z,3.33
2019-03-10T22:22:57.680Z,5.23
2019-03-10T22:25:28.801Z,2.80
2019-03-10T22:27:59.676Z,6.77
2019-03-10T22:30:30.525Z,6.40
2019-03-10T22:33:01.450Z,4.77
2019-03-10T22:35:33.435Z,3.23
2019-03-10T22:38:04.450Z,2.57
2019-03-10T22:40:35.249Z,5.37
2019-03-10T22:43:06.304Z,5.10
2019-03-10T22:45:37.111Z,4.20
2019-03-10T22:48:07.933Z,2.10
2019-03-10T22:50:38.739Z,3.23
2019-03-10T22:53:09.642Z,0.50
2019-03-10T22:55:40.671Z,2.20
2019-03-10T22:58:11.509Z,4.97
2019-03-10T23:00:47.023Z,5.40
2019-03-10T23:03:20.334Z,2.83
2019-03-10T23:05:51.238Z,2.03
2019-03-10T23:08:22.079Z,7.37
2019-03-10T23:10:52.948Z,9.90
2019-03-10T23:13:23.959Z,5.93
2019-03-10T23:15:54.890Z,2.33
2019-03-10T23:18:26.609Z,9.03
2019-03-10T23:20:57.453Z,5.33
2019-03-10T23:23:28.271Z,6.37
2019-03-10T23:25:59.035Z,5.13
2019-03-10T23:28:29.860Z,4.17
2019-03-10T23:31:00.802Z,8.23
2019-03-10T23:33:31.620Z,3.53
2019-03-10T23:36:02.453Z,5.07
2019-03-10T23:38:34.383Z,3.67
2019-03-10T23:41:05.198Z,3.47
2019-03-10T23:43:35.996Z,3.63
2019-03-10T23:46:06.994Z,9.10
2019-03-10T23:48:37.782Z,8.80
2019-03-10T23:51:08.739Z,5.40
2019-03-10T23:53:39.591Z,6.07
2019-03-10T23:56:12.665Z,4.40
2019-03-10T23:58:43.474Z,5.10
